sensor_id;sensor_type;location;lat;lon;timestamp;pressure;altitude;pressure_sealevel;temperature;humidity
10946;BME280;5525;42.648;23.368;2023-04-25T00:02:10;93959.09;;;10.87;100.00
10946;BME280;5525;42.648;23.368;2023-04-25T00:04:38;93956.25;;;10.95;100.00
10946;BME280;5525;42.648;23.368;2023-04-25T00:07:05;93948.72;;;11.01;100.00
10946;BME280;5525;42.648;23.368;2023-04-25T00:09:32;93940.72;;;10.92;100.00
10946;BME280;5525;42.648;23.368;2023-04-25T00:11:59;93927.81;;;10.86;100.00
10946;BME280;5525;42.648;23.368;2023-04-25T00:14:26;93919.84;;;10.77;100.00
10946;BME280;5525;42.648;23.368;2023-04-25T00:16:53;93921.66;;;10.73;100.00
10946;BME280;5525;42.648;23.368;2023-04-25T00:19:20;93921.00;;;10.76;100.00
10946;BME280;5525;42.648;23.368;2023-04-25T00:21:48;93924.34;;;10.73;100.00
10946;BME280;5525;42.648;23.368;2023-04-25T00:24:15;93907.09;;;10.62;100.00
10946;BME280;5525;42.648;23.368;2023-04-25T00:26:41;93903.13;;;10.60;100.00
10946;BME280;5525;42.648;23.368;2023-04-25T00:29:08;93890.09;;;10.62;100.00
10946;BME280;5525;42.648;23.368;2023-04-25T00:31:35;93889.69;;;10.48;100.00
10946;BME280;5525;42.648;23.368;2023-04-25T00:34:02;93881.06;;;10.42;100.00
10946;BME280;5525;42.648;23.368;2023-04-25T00:36:28;93888.47;;;10.45;100.00
10946;BME280;5525;42.648;23.368;2023-04-25T00:38:56;93893.63;;;10.38;100.00
10946;BME280;5525;42.648;23.368;2023-04-25T00:41:25;93887.03;;;10.36;100.00
10946;BME280;5525;42.648;23.368;2023-04-25T00:43:54;93879.25;;;10.34;100.00
10946;BME280;5525;42.648;23.368;2023-04-25T00:46:21;93875.44;;;10.35;100.00
10946;BME280;5525;42.648;23.368;2023-04-25T00:48:47;93869.84;;;10.28;100.00
10946;BME280;5525;42.648;23.368;2023-04-25T00:51:16;93870.75;;;10.20;100.00
10946;BME280;5525;42.648;23.368;2023-04-25T00:53:45;93856.81;;;10.18;100.00
10946;BME280;5525;42.648;23.368;2023-04-25T00:56:14;93871.44;;;10.17;100.00
10946;BME280;5525;42.648;23.368;2023-04-25T00:58:41;93864.66;;;10.23;100.00
10946;BME280;5525;42.648;23.368;2023-04-25T01:01:08;93869.19;;;10.19;100.00
10946;BME280;5525;42.648;23.368;2023-04-25T01:03:38;93877.16;;;10.15;100.00
10946;BME280;5525;42.648;23.368;2023-04-25T01:06:07;93873.00;;;10.18;100.00
10946;BME280;5525;42.648;23.368;2023-04-25T01:08:33;93873.34;;;10.29;100.00
10946;BME280;5525;42.648;23.368;2023-04-25T01:11:00;93872.53;;;10.28;100.00
10946;BME280;5525;42.648;23.368;2023-04-25T01:13:28;93861.72;;;10.40;100.00
10946;BME280;5525;42.648;23.368;2023-04-25T01:15:55;93857.75;;;10.50;100.00
10946;BME280;5525;42.648;23.368;2023-04-25T01:18:22;93846.78;;;10.58;100.00
10946;BME280;5525;42.648;23.368;2023-04-25T01:20:50;93849.25;;;10.63;100.00
10946;BME280;5525;42.648;23.368;2023-04-25T01:23:19;93835.47;;;10.53;100.00
10946;BME280;5525;42.648;23.368;2023-04-25T01:25:46;93829.91;;;10.61;100.00
10946;BME280;5525;42.648;23.368;2023-04-25T01:28:13;93840.47;;;10.66;100.00
10946;BME280;5525;42.648;23.368;2023-04-25T01:30:40;93846.75;;;10.70;100.00
10946;BME280;5525;42.648;23.368;2023-04-25T01:33:08;93846.31;;;10.68;100.00
10946;BME280;5525;42.648;23.368;2023-04-25T01:35:34;93844.66;;;10.64;100.00
10946;BME280;5525;42.648;23.368;2023-04-25T01:38:01;93835.88;;;10.67;100.00
10946;BME280;5525;42.648;23.368;2023-04-25T01:40:30;93862.22;;;10.58;100.00
10946;BME280;5525;42.648;23.368;2023-04-25T01:42:57;93853.34;;;10.57;100.00
10946;BME280;5525;42.648;23.368;2023-04-25T01:45:24;93854.94;;;10.46;100.00
10946;BME280;5525;42.648;23.368;2023-04-25T01:47:51;93849.50;;;10.58;100.00
10946;BME280;5525;42.648;23.368;2023-04-25T01:50:18;93856.28;;;10.52;100.00
10946;BME280;5525;42.648;23.368;2023-04-25T01:52:45;93857.94;;;10.57;100.00
10946;BME280;5525;42.648;23.368;2023-04-25T01:55:12;93863.78;;;10.59;100.00
10946;BME280;5525;42.648;23.368;2023-04-25T01:57:40;93865.47;;;10.23;100.00
10946;BME280;5525;42.648;23.368;2023-04-25T02:00:08;93865.69;;;10.06;100.00
10946;BME280;5525;42.648;23.368;2023-04-25T02:02:35;93867.94;;;10.16;100.00
10946;BME280;5525;42.648;23.368;2023-04-25T02:05:02;93868.88;;;10.08;100.00
10946;BME280;5525;42.648;23.368;2023-04-25T02:07:29;93861.78;;;10.04;100.00
10946;BME280;5525;42.648;23.368;2023-04-25T02:09:55;93846.06;;;9.82;100.00
10946;BME280;5525;42.648;23.368;2023-04-25T02:12:22;93855.13;;;10.01;100.00
10946;BME280;5525;42.648;23.368;2023-04-25T02:14:51;93851.41;;;10.06;100.00
10946;BME280;5525;42.648;23.368;2023-04-25T02:17:17;93854.59;;;10.08;100.00
10946;BME280;5525;42.648;23.368;2023-04-25T02:19:44;93842.56;;;10.05;100.00
10946;BME280;5525;42.648;23.368;2023-04-25T02:22:11;93846.69;;;10.03;100.00
10946;BME280;5525;42.648;23.368;2023-04-25T02:24:38;93841.53;;;9.98;100.00
10946;BME280;5525;42.648;23.368;2023-04-25T02:27:04;93831.41;;;9.95;100.00
10946;BME280;5525;42.648;23.368;2023-04-25T02:29:31;93810.09;;;9.90;100.00
10946;BME280;5525;42.648;23.368;2023-04-25T02:31:59;93821.66;;;9.78;100.00
10946;BME280;5525;42.648;23.368;2023-04-25T02:34:26;93811.00;;;9.82;100.00
10946;BME280;5525;42.648;23.368;2023-04-25T02:36:53;93822.00;;;9.77;100.00
10946;BME280;5525;42.648;23.368;2023-04-25T02:39:20;93825.53;;;9.65;100.00
10946;BME280;5525;42.648;23.368;2023-04-25T02:41:47;93818.44;;;9.49;100.00
10946;BME280;5525;42.648;23.368;2023-04-25T02:44:14;93828.66;;;9.43;100.00
10946;BME280;5525;42.648;23.368;2023-04-25T02:46:40;93823.47;;;9.50;100.00
10946;BME280;5525;42.648;23.368;2023-04-25T02:49:08;93812.59;;;9.59;100.00
10946;BME280;5525;42.648;23.368;2023-04-25T02:51:35;93814.72;;;9.53;100.00
10946;BME280;5525;42.648;23.368;2023-04-25T02:54:02;93817.00;;;9.51;100.00
10946;BME280;5525;42.648;23.368;2023-04-25T02:56:29;93804.41;;;9.55;100.00
10946;BME280;5525;42.648;23.368;2023-04-25T02:58:55;93803.19;;;9.53;100.00
10946;BME280;5525;42.648;23.368;2023-04-25T03:01:22;93805.53;;;9.54;100.00
10946;BME280;5525;42.648;23.368;2023-04-25T03:03:49;93811.81;;;9.46;100.00
10946;BME280;5525;42.648;23.368;2023-04-25T03:06:17;93802.38;;;9.52;100.00
10946;BME280;5525;42.648;23.368;2023-04-25T03:08:43;93807.56;;;9.57;100.00
10946;BME280;5525;42.648;23.368;2023-04-25T03:11:10;93801.94;;;9.62;100.00
10946;BME280;5525;42.648;23.368;2023-04-25T03:13:37;93792.38;;;9.65;100.00
10946;BME280;5525;42.648;23.368;2023-04-25T03:16:04;93805.50;;;9.78;100.00
10946;BME280;5525;42.648;23.368;2023-04-25T03:18:31;93785.38;;;9.88;100.00
10946;BME280;5525;42.648;23.368;2023-04-25T03:20:58;93797.97;;;9.72;100.00
10946;BME280;5525;42.648;23.368;2023-04-25T03:23:26;93809.75;;;9.79;100.00
10946;BME280;5525;42.648;23.368;2023-04-25T03:25:52;93804.91;;;9.97;100.00
10946;BME280;5525;42.648;23.368;2023-04-25T03:28:19;93803.34;;;10.08;100.00
10946;BME280;5525;42.648;23.368;2023-04-25T03:30:46;93798.94;;;10.15;100.00
10946;BME280;5525;42.648;23.368;2023-04-25T03:33:13;93796.13;;;10.12;100.00
10946;BME280;5525;42.648;23.368;2023-04-25T03:35:39;93800.03;;;10.27;100.00
10946;BME280;5525;42.648;23.368;2023-04-25T03:38:08;93790.91;;;10.31;100.00
10946;BME280;5525;42.648;23.368;2023-04-25T03:40:36;93791.59;;;10.28;100.00
10946;BME280;5525;42.648;23.368;2023-04-25T03:43:02;93798.66;;;10.33;100.00
10946;BME280;5525;42.648;23.368;2023-04-25T03:45:30;93810.72;;;10.23;100.00
10946;BME280;5525;42.648;23.368;2023-04-25T03:47:57;93811.78;;;9.94;100.00
10946;BME280;5525;42.648;23.368;2023-04-25T03:50:23;93807.84;;;9.80;100.00
10946;BME280;5525;42.648;23.368;2023-04-25T03:52:50;93805.38;;;9.87;100.00
10946;BME280;5525;42.648;23.368;2023-04-25T03:55:17;93797.63;;;9.97;100.00
10946;BME280;5525;42.648;23.368;2023-04-25T03:57:45;93789.72;;;10.16;100.00
10946;BME280;5525;42.648;23.368;2023-04-25T04:00:13;93790.13;;;10.31;100.00
10946;BME280;5525;42.648;23.368;2023-04-25T04:02:39;93781.97;;;10.43;100.00
10946;BME280;5525;42.648;23.368;2023-04-25T04:05:06;93785.06;;;10.57;100.00
10946;BME280;5525;42.648;23.368;2023-04-25T04:07:33;93789.19;;;10.66;100.00
10946;BME280;5525;42.648;23.368;2023-04-25T04:10:05;93796.78;;;10.92;100.00
10946;BME280;5525;42.648;23.368;2023-04-25T04:12:32;93807.97;;;11.06;100.00
10946;BME280;5525;42.648;23.368;2023-04-25T04:15:00;93808.34;;;11.35;100.00
10946;BME280;5525;42.648;23.368;2023-04-25T04:17:28;93812.53;;;11.48;100.00
10946;BME280;5525;42.648;23.368;2023-04-25T04:19:55;93815.69;;;11.66;100.00
10946;BME280;5525;42.648;23.368;2023-04-25T04:22:22;93811.84;;;11.67;100.00
10946;BME280;5525;42.648;23.368;2023-04-25T04:24:49;93792.72;;;11.60;100.00
10946;BME280;5525;42.648;23.368;2023-04-25T04:27:17;93801.88;;;11.55;100.00
10946;BME280;5525;42.648;23.368;2023-04-25T04:29:44;93798.84;;;11.57;100.00
10946;BME280;5525;42.648;23.368;2023-04-25T04:32:12;93807.66;;;11.54;100.00
10946;BME280;5525;42.648;23.368;2023-04-25T04:34:39;93805.88;;;11.61;100.00
10946;BME280;5525;42.648;23.368;2023-04-25T04:37:06;93797.34;;;11.59;100.00
10946;BME280;5525;42.648;23.368;2023-04-25T04:39:35;93793.34;;;11.69;100.00
10946;BME280;5525;42.648;23.368;2023-04-25T04:42:02;93797.91;;;11.65;100.00
10946;BME280;5525;42.648;23.368;2023-04-25T04:44:30;93802.34;;;11.73;100.00
10946;BME280;5525;42.648;23.368;2023-04-25T04:46:57;93802.66;;;11.87;100.00
10946;BME280;5525;42.648;23.368;2023-04-25T04:49:26;93806.03;;;12.00;100.00
10946;BME280;5525;42.648;23.368;2023-04-25T04:51:52;93796.84;;;12.04;100.00
10946;BME280;5525;42.648;23.368;2023-04-25T04:54:20;93807.31;;;12.06;100.00
10946;BME280;5525;42.648;23.368;2023-04-25T04:56:46;93822.34;;;12.03;100.00
10946;BME280;5525;42.648;23.368;2023-04-25T04:59:13;93814.28;;;12.22;100.00
10946;BME280;5525;42.648;23.368;2023-04-25T05:01:40;93815.69;;;12.16;100.00
10946;BME280;5525;42.648;23.368;2023-04-25T05:04:07;93810.03;;;12.06;100.00
10946;BME280;5525;42.648;23.368;2023-04-25T05:06:35;93817.72;;;12.04;100.00
10946;BME280;5525;42.648;23.368;2023-04-25T05:09:01;93814.38;;;11.75;100.00
10946;BME280;5525;42.648;23.368;2023-04-25T05:11:28;93822.38;;;11.56;100.00
10946;BME280;5525;42.648;23.368;2023-04-25T05:13:55;93827.63;;;11.34;100.00
10946;BME280;5525;42.648;23.368;2023-04-25T05:16:22;93828.16;;;11.24;100.00
10946;BME280;5525;42.648;23.368;2023-04-25T05:18:48;93841.50;;;11.63;100.00
10946;BME280;5525;42.648;23.368;2023-04-25T05:21:15;93842.13;;;11.72;100.00
10946;BME280;5525;42.648;23.368;2023-04-25T05:23:43;93840.50;;;11.87;100.00
10946;BME280;5525;42.648;23.368;2023-04-25T05:26:10;93834.09;;;11.76;100.00
10946;BME280;5525;42.648;23.368;2023-04-25T05:28:39;93824.31;;;11.56;100.00
10946;BME280;5525;42.648;23.368;2023-04-25T05:31:06;93828.25;;;11.74;100.00
10946;BME280;5525;42.648;23.368;2023-04-25T05:33:33;93831.97;;;11.54;100.00
10946;BME280;5525;42.648;23.368;2023-04-25T05:35:59;93837.22;;;11.47;100.00
10946;BME280;5525;42.648;23.368;2023-04-25T05:38:26;93823.72;;;11.47;100.00
10946;BME280;5525;42.648;23.368;2023-04-25T05:40:54;93831.63;;;11.86;100.00
10946;BME280;5525;42.648;23.368;2023-04-25T05:43:21;93831.28;;;11.88;100.00
10946;BME280;5525;42.648;23.368;2023-04-25T05:45:47;93834.00;;;11.72;100.00
10946;BME280;5525;42.648;23.368;2023-04-25T05:48:14;93842.81;;;11.85;100.00
10946;BME280;5525;42.648;23.368;2023-04-25T05:50:41;93832.75;;;11.85;100.00
10946;BME280;5525;42.648;23.368;2023-04-25T05:53:08;93841.91;;;12.31;100.00
10946;BME280;5525;42.648;23.368;2023-04-25T05:55:35;93826.84;;;12.68;100.00
10946;BME280;5525;42.648;23.368;2023-04-25T05:58:05;93842.91;;;12.99;100.00
10946;BME280;5525;42.648;23.368;2023-04-25T06:00:32;93839.13;;;13.23;100.00
10946;BME280;5525;42.648;23.368;2023-04-25T06:02:59;93841.19;;;13.29;100.00
10946;BME280;5525;42.648;23.368;2023-04-25T06:05:26;93844.34;;;13.31;100.00
10946;BME280;5525;42.648;23.368;2023-04-25T06:07:53;93837.03;;;13.35;100.00
10946;BME280;5525;42.648;23.368;2023-04-25T06:10:21;93832.91;;;13.00;100.00
10946;BME280;5525;42.648;23.368;2023-04-25T06:12:48;93830.41;;;13.55;100.00
10946;BME280;5525;42.648;23.368;2023-04-25T06:15:16;93831.13;;;13.75;100.00
10946;BME280;5525;42.648;23.368;2023-04-25T06:17:43;93828.56;;;13.86;100.00
10946;BME280;5525;42.648;23.368;2023-04-25T06:20:10;93830.63;;;13.92;100.00
10946;BME280;5525;42.648;23.368;2023-04-25T06:22:37;93834.72;;;14.05;100.00
10946;BME280;5525;42.648;23.368;2023-04-25T06:25:04;93828.63;;;13.89;100.00
10946;BME280;5525;42.648;23.368;2023-04-25T06:27:32;93829.66;;;13.81;100.00
10946;BME280;5525;42.648;23.368;2023-04-25T06:29:59;93831.66;;;13.84;100.00
10946;BME280;5525;42.648;23.368;2023-04-25T06:32:27;93831.34;;;13.89;100.00
10946;BME280;5525;42.648;23.368;2023-04-25T06:34:55;93843.97;;;14.04;100.00
10946;BME280;5525;42.648;23.368;2023-04-25T06:37:21;93831.69;;;14.66;100.00
10946;BME280;5525;42.648;23.368;2023-04-25T06:39:48;93825.53;;;15.75;100.00
10946;BME280;5525;42.648;23.368;2023-04-25T06:42:15;93835.47;;;17.44;100.00
10946;BME280;5525;42.648;23.368;2023-04-25T06:44:42;93832.31;;;18.86;100.00
10946;BME280;5525;42.648;23.368;2023-04-25T06:47:08;93824.06;;;19.76;100.00
10946;BME280;5525;42.648;23.368;2023-04-25T06:49:36;93821.31;;;19.00;100.00
10946;BME280;5525;42.648;23.368;2023-04-25T06:52:03;93826.56;;;18.28;100.00
10946;BME280;5525;42.648;23.368;2023-04-25T06:54:30;93830.03;;;17.69;100.00
10946;BME280;5525;42.648;23.368;2023-04-25T06:56:56;93825.97;;;17.10;100.00
10946;BME280;5525;42.648;23.368;2023-04-25T06:59:23;93829.56;;;17.28;100.00
10946;BME280;5525;42.648;23.368;2023-04-25T07:01:50;93823.25;;;17.07;100.00
10946;BME280;5525;42.648;23.368;2023-04-25T07:04:16;93832.59;;;17.09;100.00
10946;BME280;5525;42.648;23.368;2023-04-25T07:06:44;93831.81;;;17.12;100.00
10946;BME280;5525;42.648;23.368;2023-04-25T07:09:12;93818.63;;;17.28;100.00
10946;BME280;5525;42.648;23.368;2023-04-25T07:11:39;93823.72;;;17.30;100.00
10946;BME280;5525;42.648;23.368;2023-04-25T07:14:06;93827.28;;;17.48;100.00
10946;BME280;5525;42.648;23.368;2023-04-25T07:16:33;93820.59;;;17.35;100.00
10946;BME280;5525;42.648;23.368;2023-04-25T07:18:59;93828.94;;;16.80;100.00
10946;BME280;5525;42.648;23.368;2023-04-25T07:21:26;93831.13;;;16.47;100.00
10946;BME280;5525;42.648;23.368;2023-04-25T07:23:54;93822.75;;;16.80;100.00
10946;BME280;5525;42.648;23.368;2023-04-25T07:26:21;93822.34;;;16.81;100.00
10946;BME280;5525;42.648;23.368;2023-04-25T07:28:47;93817.72;;;16.96;100.00
10946;BME280;5525;42.648;23.368;2023-04-25T07:31:16;93819.59;;;19.38;100.00
10946;BME280;5525;42.648;23.368;2023-04-25T07:33:43;93822.03;;;19.90;100.00
10946;BME280;5525;42.648;23.368;2023-04-25T07:36:10;93822.78;;;19.29;100.00
10946;BME280;5525;42.648;23.368;2023-04-25T07:38:37;93821.44;;;18.62;100.00
10946;BME280;5525;42.648;23.368;2023-04-25T07:41:05;93815.22;;;18.43;100.00
10946;BME280;5525;42.648;23.368;2023-04-25T07:43:32;93814.84;;;18.41;100.00
10946;BME280;5525;42.648;23.368;2023-04-25T07:45:59;93818.34;;;18.10;100.00
10946;BME280;5525;42.648;23.368;2023-04-25T07:48:26;93810.94;;;18.14;100.00
10946;BME280;5525;42.648;23.368;2023-04-25T07:50:52;93809.31;;;18.66;100.00
10946;BME280;5525;42.648;23.368;2023-04-25T07:53:19;93808.09;;;19.64;100.00
10946;BME280;5525;42.648;23.368;2023-04-25T07:55:46;93811.72;;;19.50;98.81
10946;BME280;5525;42.648;23.368;2023-04-25T07:58:14;93807.00;;;18.54;100.00
10946;BME280;5525;42.648;23.368;2023-04-25T08:00:41;93809.34;;;18.24;100.00
10946;BME280;5525;42.648;23.368;2023-04-25T08:03:09;93794.91;;;18.27;100.00
10946;BME280;5525;42.648;23.368;2023-04-25T08:05:36;93797.69;;;18.09;100.00
10946;BME280;5525;42.648;23.368;2023-04-25T08:08:03;93801.63;;;19.95;100.00
10946;BME280;5525;42.648;23.368;2023-04-25T08:10:31;93806.63;;;22.09;88.65
10946;BME280;5525;42.648;23.368;2023-04-25T08:12:58;93814.50;;;24.29;70.25
10946;BME280;5525;42.648;23.368;2023-04-25T08:15:26;93805.34;;;25.78;60.46
10946;BME280;5525;42.648;23.368;2023-04-25T08:17:53;93811.28;;;28.19;50.62
10946;BME280;5525;42.648;23.368;2023-04-25T08:20:20;93811.09;;;29.47;44.59
10946;BME280;5525;42.648;23.368;2023-04-25T08:22:46;93816.38;;;32.26;37.70
10946;BME280;5525;42.648;23.368;2023-04-25T08:25:14;93820.97;;;35.48;31.03
10946;BME280;5525;42.648;23.368;2023-04-25T08:27:40;93813.09;;;35.69;28.22
10946;BME280;5525;42.648;23.368;2023-04-25T08:30:08;93803.44;;;33.47;29.28
10946;BME280;5525;42.648;23.368;2023-04-25T08:32:36;93798.94;;;31.11;32.97
10946;BME280;5525;42.648;23.368;2023-04-25T08:35:04;93791.16;;;29.76;33.57
10946;BME280;5525;42.648;23.368;2023-04-25T08:37:32;93789.41;;;28.21;35.76
10946;BME280;5525;42.648;23.368;2023-04-25T08:39:58;93785.09;;;29.86;33.73
10946;BME280;5525;42.648;23.368;2023-04-25T08:42:27;93786.09;;;28.44;34.88
10946;BME280;5525;42.648;23.368;2023-04-25T08:44:54;93786.84;;;24.93;43.78
10946;BME280;5525;42.648;23.368;2023-04-25T08:47:22;93803.88;;;24.11;46.28
10946;BME280;5525;42.648;23.368;2023-04-25T08:49:53;93808.56;;;23.59;53.21
10946;BME280;5525;42.648;23.368;2023-04-25T08:52:22;93792.72;;;22.65;54.65
10946;BME280;5525;42.648;23.368;2023-04-25T08:54:49;93799.19;;;22.32;69.97
10946;BME280;5525;42.648;23.368;2023-04-25T08:57:18;93786.00;;;26.28;49.25
10946;BME280;5525;42.648;23.368;2023-04-25T08:59:45;93788.53;;;28.02;42.36
10946;BME280;5525;42.648;23.368;2023-04-25T09:02:13;93803.31;;;31.27;37.25
10946;BME280;5525;42.648;23.368;2023-04-25T09:04:42;93801.97;;;32.77;33.70
10946;BME280;5525;42.648;23.368;2023-04-25T09:07:11;93796.56;;;31.42;36.50
10946;BME280;5525;42.648;23.368;2023-04-25T09:09:38;93786.19;;;31.57;35.76
10946;BME280;5525;42.648;23.368;2023-04-25T09:12:05;93785.44;;;32.29;33.56
10946;BME280;5525;42.648;23.368;2023-04-25T09:14:32;93789.47;;;30.61;35.52
10946;BME280;5525;42.648;23.368;2023-04-25T09:17:00;93788.63;;;28.21;38.52
10946;BME280;5525;42.648;23.368;2023-04-25T09:19:28;93778.31;;;25.45;44.75
10946;BME280;5525;42.648;23.368;2023-04-25T09:21:58;93775.56;;;24.71;49.57
10946;BME280;5525;42.648;23.368;2023-04-25T09:24:35;93771.56;;;22.82;61.09
10946;BME280;5525;42.648;23.368;2023-04-25T09:27:05;93780.53;;;22.20;66.82
10946;BME280;5525;42.648;23.368;2023-04-25T09:29:33;93769.97;;;21.65;69.50
10946;BME280;5525;42.648;23.368;2023-04-25T09:32:17;93764.94;;;20.67;74.35
10946;BME280;5525;42.648;23.368;2023-04-25T09:34:46;93769.09;;;20.00;83.30
10946;BME280;5525;42.648;23.368;2023-04-25T09:37:18;93756.88;;;19.61;87.88
10946;BME280;5525;42.648;23.368;2023-04-25T09:39:47;93764.38;;;19.53;93.55
10946;BME280;5525;42.648;23.368;2023-04-25T09:42:15;93758.19;;;19.42;94.45
10946;BME280;5525;42.648;23.368;2023-04-25T09:44:43;93758.66;;;19.23;96.17
10946;BME280;5525;42.648;23.368;2023-04-25T09:47:11;93768.59;;;18.93;99.26
10946;BME280;5525;42.648;23.368;2023-04-25T09:49:39;93753.06;;;18.65;100.00
10946;BME280;5525;42.648;23.368;2023-04-25T09:52:08;93759.06;;;17.93;100.00
10946;BME280;5525;42.648;23.368;2023-04-25T09:54:35;93768.41;;;18.13;100.00
10946;BME280;5525;42.648;23.368;2023-04-25T09:57:09;93749.41;;;19.00;100.00
10946;BME280;5525;42.648;23.368;2023-04-25T09:59:39;93741.03;;;19.31;100.00
10946;BME280;5525;42.648;23.368;2023-04-25T10:02:09;93755.47;;;19.39;97.55
10946;BME280;5525;42.648;23.368;2023-04-25T10:04:37;93756.72;;;19.27;100.00
10946;BME280;5525;42.648;23.368;2023-04-25T10:07:06;93755.25;;;19.02;100.00
10946;BME280;5525;42.648;23.368;2023-04-25T10:09:33;93755.16;;;19.19;100.00
10946;BME280;5525;42.648;23.368;2023-04-25T10:12:03;93745.78;;;19.20;98.11
10946;BME280;5525;42.648;23.368;2023-04-25T10:14:31;93743.22;;;18.85;98.74
10946;BME280;5525;42.648;23.368;2023-04-25T10:16:58;93745.25;;;18.64;99.96
10946;BME280;5525;42.648;23.368;2023-04-25T10:19:25;93739.38;;;18.69;100.00
10946;BME280;5525;42.648;23.368;2023-04-25T10:21:55;93751.81;;;18.87;98.81
10946;BME280;5525;42.648;23.368;2023-04-25T10:24:25;93774.28;;;17.87;100.00
10946;BME280;5525;42.648;23.368;2023-04-25T10:26:52;93763.28;;;16.28;100.00
10946;BME280;5525;42.648;23.368;2023-04-25T10:29:24;93749.41;;;15.89;100.00
10946;BME280;5525;42.648;23.368;2023-04-25T10:31:52;93741.19;;;16.47;87.24
10946;BME280;5525;42.648;23.368;2023-04-25T10:34:19;93730.47;;;19.37;83.94
10946;BME280;5525;42.648;23.368;2023-04-25T10:36:51;93743.44;;;25.35;52.86
10946;BME280;5525;42.648;23.368;2023-04-25T10:39:22;93738.69;;;26.48;43.76
10946;BME280;5525;42.648;23.368;2023-04-25T10:41:55;93737.97;;;27.77;39.32
10946;BME280;5525;42.648;23.368;2023-04-25T10:44:26;93745.84;;;30.26;33.38
10946;BME280;5525;42.648;23.368;2023-04-25T10:46:55;93745.53;;;32.58;30.56
10946;BME280;5525;42.648;23.368;2023-04-25T10:49:31;93749.72;;;30.19;31.67
10946;BME280;5525;42.648;23.368;2023-04-25T10:52:25;93752.53;;;23.10;49.21
10946;BME280;5525;42.648;23.368;2023-04-25T10:54:54;93762.88;;;20.41;73.98
10946;BME280;5525;42.648;23.368;2023-04-25T10:57:31;93757.78;;;19.95;73.96
10946;BME280;5525;42.648;23.368;2023-04-25T11:00:08;93759.13;;;19.08;82.41
10946;BME280;5525;42.648;23.368;2023-04-25T11:02:43;93751.19;;;18.27;88.47
10946;BME280;5525;42.648;23.368;2023-04-25T11:05:18;93757.50;;;17.82;93.15
10946;BME280;5525;42.648;23.368;2023-04-25T11:07:50;93748.53;;;17.95;93.35
10946;BME280;5525;42.648;23.368;2023-04-25T11:10:18;93747.72;;;18.05;94.16
10946;BME280;5525;42.648;23.368;2023-04-25T11:12:45;93747.06;;;20.55;78.84
10946;BME280;5525;42.648;23.368;2023-04-25T11:15:14;93745.13;;;21.99;71.37
10946;BME280;5525;42.648;23.368;2023-04-25T11:17:41;93731.06;;;24.69;56.22
10946;BME280;5525;42.648;23.368;2023-04-25T11:20:10;93741.59;;;28.26;44.04
10946;BME280;5525;42.648;23.368;2023-04-25T11:22:39;93735.09;;;28.96;36.54
10946;BME280;5525;42.648;23.368;2023-04-25T11:25:08;93736.63;;;29.33;35.10
10946;BME280;5525;42.648;23.368;2023-04-25T11:27:38;93735.75;;;25.55;37.86
10946;BME280;5525;42.648;23.368;2023-04-25T11:30:15;93734.50;;;23.97;44.47
10946;BME280;5525;42.648;23.368;2023-04-25T11:32:42;93735.56;;;22.53;49.59
10946;BME280;5525;42.648;23.368;2023-04-25T11:35:09;93742.19;;;21.60;56.18
10946;BME280;5525;42.648;23.368;2023-04-25T11:37:38;93734.34;;;20.68;63.07
10946;BME280;5525;42.648;23.368;2023-04-25T11:40:07;93739.75;;;19.97;74.77
10946;BME280;5525;42.648;23.368;2023-04-25T11:42:37;93731.78;;;19.08;85.31
10946;BME280;5525;42.648;23.368;2023-04-25T11:45:06;93739.81;;;18.57;91.07
10946;BME280;5525;42.648;23.368;2023-04-25T11:47:36;93743.06;;;17.60;100.00
10946;BME280;5525;42.648;23.368;2023-04-25T11:50:04;93757.41;;;17.19;100.00
10946;BME280;5525;42.648;23.368;2023-04-25T11:52:37;93759.28;;;16.87;100.00
10946;BME280;5525;42.648;23.368;2023-04-25T11:55:06;93765.84;;;16.75;100.00
10946;BME280;5525;42.648;23.368;2023-04-25T11:57:33;93765.56;;;16.19;100.00
10946;BME280;5525;42.648;23.368;2023-04-25T12:00:08;93760.91;;;15.69;100.00
10946;BME280;5525;42.648;23.368;2023-04-25T12:02:40;93769.88;;;14.26;100.00
10946;BME280;5525;42.648;23.368;2023-04-25T12:05:08;93766.97;;;13.86;100.00
10946;BME280;5525;42.648;23.368;2023-04-25T12:07:35;93739.16;;;13.67;100.00
10946;BME280;5525;42.648;23.368;2023-04-25T12:10:05;93739.78;;;14.12;100.00
10946;BME280;5525;42.648;23.368;2023-04-25T12:12:36;93735.34;;;14.93;100.00
10946;BME280;5525;42.648;23.368;2023-04-25T12:15:10;93733.13;;;15.96;100.00
10946;BME280;5525;42.648;23.368;2023-04-25T12:17:39;93726.22;;;16.13;100.00
10946;BME280;5525;42.648;23.368;2023-04-25T12:20:08;93718.59;;;16.43;100.00
10946;BME280;5525;42.648;23.368;2023-04-25T12:22:35;93717.13;;;16.63;100.00
10946;BME280;5525;42.648;23.368;2023-04-25T12:25:03;93710.22;;;17.01;100.00
10946;BME280;5525;42.648;23.368;2023-04-25T12:27:31;93708.38;;;17.57;100.00
10946;BME280;5525;42.648;23.368;2023-04-25T12:29:59;93703.25;;;17.28;100.00
10946;BME280;5525;42.648;23.368;2023-04-25T12:32:25;93707.81;;;16.74;100.00
10946;BME280;5525;42.648;23.368;2023-04-25T12:34:54;93709.06;;;16.98;100.00
10946;BME280;5525;42.648;23.368;2023-04-25T12:37:21;93700.13;;;17.19;100.00
10946;BME280;5525;42.648;23.368;2023-04-25T12:39:47;93714.16;;;17.28;100.00
10946;BME280;5525;42.648;23.368;2023-04-25T12:42:14;93732.94;;;17.68;100.00
10946;BME280;5525;42.648;23.368;2023-04-25T12:44:41;93731.72;;;17.41;100.00
10946;BME280;5525;42.648;23.368;2023-04-25T12:47:08;93754.53;;;16.66;100.00
10946;BME280;5525;42.648;23.368;2023-04-25T12:49:35;93772.16;;;17.04;100.00
10946;BME280;5525;42.648;23.368;2023-04-25T12:52:03;93774.00;;;16.68;100.00
10946;BME280;5525;42.648;23.368;2023-04-25T12:54:30;93761.66;;;15.66;100.00
10946;BME280;5525;42.648;23.368;2023-04-25T12:56:57;93773.09;;;15.01;100.00